createdAt,value
2019-01-02T00:00:38.869Z,26.73
2019-01-02T00:03:06.087Z,28.63
2019-01-02T00:05:33.853Z,22.80
2019-01-02T00:08:01.113Z,25.07
2019-01-02T00:10:28.527Z,25.23
2019-01-02T00:12:55.817Z,26.23
2019-01-02T00:15:23.656Z,32.60
2019-01-02T00:17:50.923Z,33.70
2019-01-02T00:20:18.494Z,31.07
2019-01-02T00:22:45.709Z,34.53
2019-01-02T00:25:12.940Z,37.00
2019-01-02T00:27:40.212Z,36.13
2019-01-02T00:30:07.652Z,29.03
2019-01-02T00:32:35.685Z,31.00
2019-01-02T00:35:03.137Z,27.40
2019-01-02T00:37:30.707Z,27.60
2019-01-02T00:39:57.972Z,26.87
2019-01-02T00:42:25.677Z,26.13
2019-01-02T00:44:52.936Z,26.43
2019-01-02T00:47:21.014Z,32.03
2019-01-02T00:49:48.234Z,31.43
2019-01-02T00:52:15.967Z,25.13
2019-01-02T00:54:43.240Z,25.63
2019-01-02T00:57:10.807Z,33.80
2019-01-02T00:59:38.104Z,29.00
2019-01-02T01:02:05.455Z,32.07
2019-01-02T01:04:32.798Z,32.80
2019-01-02T01:07:00.096Z,25.37
2019-01-02T01:09:27.843Z,27.23
2019-01-02T01:11:55.103Z,23.17
2019-01-02T01:14:23.175Z,28.27
2019-01-02T01:16:50.403Z,30.10
2019-01-02T01:19:19.407Z,26.60
2019-01-02T01:21:46.666Z,33.73
2019-01-02T01:24:13.974Z,25.83
2019-01-02T01:26:41.252Z,31.17
2019-01-02T01:29:09.706Z,33.30
2019-01-02T01:31:39.348Z,32.80
2019-01-02T01:34:08.741Z,26.47
2019-01-02T01:36:36.027Z,43.30
2019-01-02T01:39:06.030Z,39.23
2019-01-02T01:41:33.317Z,26.40
2019-01-02T01:44:00.981Z,23.10
2019-01-02T01:46:28.251Z,23.97
2019-01-02T01:48:58.080Z,20.50
2019-01-02T01:51:25.365Z,26.60
2019-01-02T01:53:52.713Z,28.33
2019-01-02T01:56:20.438Z,27.90
2019-01-02T01:58:47.794Z,28.17
2019-01-02T02:01:15.083Z,29.40
2019-01-02T02:03:42.839Z,36.90
2019-01-02T02:06:10.056Z,31.37
2019-01-02T02:08:37.739Z,34.37
2019-01-02T02:11:05.007Z,31.10
2019-01-02T02:13:32.236Z,35.50
2019-01-02T02:15:59.914Z,30.03
2019-01-02T02:18:27.132Z,28.47
2019-01-02T02:20:56.047Z,33.97
2019-01-02T02:23:23.339Z,22.70
2019-01-02T02:25:50.558Z,30.90
2019-01-02T02:28:17.787Z,34.83
2019-01-02T02:30:45.067Z,24.77
2019-01-02T02:33:12.685Z,39.93
2019-01-02T02:35:40.295Z,31.30
2019-01-02T02:38:07.809Z,27.30
2019-01-02T02:40:35.071Z,28.57
2019-01-02T02:43:02.327Z,38.53
2019-01-02T02:45:30.117Z,32.73
2019-01-02T02:47:57.739Z,22.43
2019-01-02T02:50:25.753Z,37.00
2019-01-02T02:52:53.178Z,37.33
2019-01-02T02:55:23.296Z,29.13
2019-01-02T02:57:50.626Z,29.30
2019-01-02T03:00:17.860Z,30.00
2019-01-02T03:02:45.163Z,28.53
2019-01-02T03:05:13.483Z,26.50
2019-01-02T03:07:42.431Z,32.33
2019-01-02T03:10:11.966Z,28.17
2019-01-02T03:12:41.021Z,29.57
2019-01-02T03:15:09.330Z,37.47
2019-01-02T03:17:36.585Z,26.63
2019-01-02T03:20:04.722Z,26.90
2019-01-02T03:22:32.302Z,31.83
2019-01-02T03:24:59.808Z,30.37
2019-01-02T03:27:27.526Z,37.40
2019-01-02T03:29:55.059Z,34.57
2019-01-02T03:32:22.295Z,30.87
2019-01-02T03:34:49.959Z,26.70
2019-01-02T03:37:17.213Z,23.50
2019-01-02T03:39:44.463Z,26.67
2019-01-02T03:42:11.768Z,21.60
2019-01-02T03:44:39.038Z,23.03
2019-01-02T03:47:06.284Z,23.07
2019-01-02T03:49:33.548Z,23.23
2019-01-02T03:52:00.819Z,27.80
2019-01-02T03:54:28.018Z,27.23
2019-01-02T03:56:55.247Z,25.80
2019-01-02T03:59:22.480Z,25.17
2019-01-02T04:01:49.719Z,21.27
2019-01-02T04:04:17.019Z,31.50
2019-01-02T04:06:44.247Z,32.50
2019-01-02T04:09:11.456Z,23.47
2019-01-02T04:11:38.704Z,26.50
2019-01-02T04:14:05.932Z,28.63
2019-01-02T04:16:33.203Z,26.03
2019-01-02T04:19:00.468Z,27.53
2019-01-02T04:21:27.692Z,23.87
2019-01-02T04:23:54.962Z,23.83
2019-01-02T04:26:22.218Z,27.43
2019-01-02T04:28:49.458Z,27.53
2019-01-02T04:31:16.711Z,24.10
2019-01-02T04:33:43.934Z,27.43
2019-01-02T04:36:11.161Z,20.10
2019-01-02T04:38:38.409Z,18.93
2019-01-02T04:41:05.667Z,17.73
2019-01-02T04:43:33.795Z,21.60
2019-01-02T04:46:01.055Z,24.13
2019-01-02T04:48:28.263Z,24.20
2019-01-02T04:50:55.596Z,28.17
2019-01-02T04:53:22.849Z,21.80
2019-01-02T04:55:50.090Z,18.07
2019-01-02T04:58:17.359Z,26.53
2019-01-02T05:00:44.816Z,30.47
2019-01-02T05:03:12.059Z,27.17
2019-01-02T05:05:39.280Z,32.10
2019-01-02T05:08:08.721Z,25.63
2019-01-02T05:10:35.979Z,30.57
2019-01-02T05:13:03.197Z,20.93
2019-01-02T05:15:30.448Z,27.73
2019-01-02T05:17:57.720Z,24.93
2019-01-02T05:20:24.959Z,25.57
2019-01-02T05:22:52.211Z,26.60
2019-01-02T05:25:19.504Z,27.90
2019-01-02T05:27:46.722Z,26.50
2019-01-02T05:30:16.276Z,27.90
2019-01-02T05:32:43.541Z,22.07
2019-01-02T05:35:10.784Z,26.57
2019-01-02T05:37:38.044Z,35.97
2019-01-02T05:40:08.224Z,30.20
2019-01-02T05:42:35.499Z,37.33
2019-01-02T05:45:02.857Z,28.17
2019-01-02T05:47:30.878Z,26.40
2019-01-02T05:49:58.187Z,25.40
2019-01-02T05:52:25.440Z,19.40
2019-01-02T05:54:52.692Z,30.20
2019-01-02T05:57:19.909Z,20.80
2019-01-02T05:59:47.168Z,25.57
2019-01-02T06:02:15.415Z,29.17
2019-01-02T06:04:42.645Z,31.20
2019-01-02T06:07:09.923Z,26.00
2019-01-02T06:09:37.137Z,29.40
2019-01-02T06:12:04.431Z,27.90
2019-01-02T06:14:31.638Z,26.63
2019-01-02T06:16:58.834Z,28.77
2019-01-02T06:19:26.088Z,26.00
2019-01-02T06:21:53.367Z,31.50
2019-01-02T06:24:20.673Z,27.83
2019-01-02T06:26:47.892Z,28.60
2019-01-02T06:29:15.161Z,29.63
2019-01-02T06:31:42.751Z,24.67
2019-01-02T06:34:09.997Z,34.47
2019-01-02T06:36:37.225Z,28.37
2019-01-02T06:39:06.700Z,27.23
2019-01-02T06:41:33.996Z,24.93
2019-01-02T06:44:01.315Z,28.93
2019-01-02T06:46:28.604Z,23.03
2019-01-02T06:48:58.086Z,25.87
2019-01-02T06:51:25.428Z,23.40
2019-01-02T06:53:52.726Z,27.53
2019-01-02T06:56:20.043Z,19.57
2019-01-02T06:58:47.264Z,23.57
2019-01-02T07:01:14.763Z,22.80
2019-01-02T07:03:41.954Z,18.13
2019-01-02T07:06:09.219Z,20.50
2019-01-02T07:08:36.435Z,23.40
2019-01-02T07:11:03.663Z,27.20
2019-01-02T07:13:30.950Z,26.73
2019-01-02T07:15:58.200Z,28.47
2019-01-02T07:18:25.442Z,25.37
2019-01-02T07:20:52.838Z,30.37
2019-01-02T07:23:20.092Z,35.33
2019-01-02T07:25:48.464Z,21.07
2019-01-02T07:28:15.662Z,23.47
2019-01-02T07:30:42.924Z,25.40
2019-01-02T07:33:10.191Z,27.10
2019-01-02T07:36:03.433Z,23.40
2019-01-02T07:39:00.638Z,21.00
2019-01-02T07:42:05.444Z,14.33
2019-01-02T07:45:12.923Z,20.17
2019-01-02T07:48:20.903Z,24.47
2019-01-02T07:51:32.801Z,25.27
2019-01-02T07:54:43.417Z,19.20
2019-01-02T07:57:52.560Z,34.90
2019-01-02T08:00:44.287Z,23.97
2019-01-02T08:04:08.194Z,26.27
2019-01-02T08:07:38.659Z,19.50
2019-01-02T08:10:42.615Z,23.17
2019-01-02T08:13:41.587Z,18.33
2019-01-02T08:17:15.035Z,24.93
2019-01-02T08:20:24.094Z,19.87
2019-01-02T08:23:54.375Z,23.63
2019-01-02T08:26:36.414Z,19.07
2019-01-02T08:29:30.857Z,16.40
2019-01-02T08:32:49.137Z,20.17
2019-01-02T08:35:34.591Z,21.47
2019-01-02T08:38:48.792Z,21.40
2019-01-02T08:41:58.786Z,16.50
2019-01-02T08:45:16.647Z,20.27
2019-01-02T08:48:31.853Z,19.77
2019-01-02T08:51:47.035Z,24.03
2019-01-02T08:54:36.056Z,19.37
2019-01-02T08:57:35.898Z,12.33
2019-01-02T09:00:57.207Z,17.10
2019-01-02T09:04:09.309Z,16.13
2019-01-02T09:07:33.455Z,18.63
2019-01-02T09:10:38.012Z,17.93
2019-01-02T09:13:54.972Z,17.40
2019-01-02T09:17:06.268Z,19.17
2019-01-02T09:20:04.045Z,14.90
2019-01-02T09:23:15.906Z,20.03
2019-01-02T09:26:20.889Z,20.30
2019-01-02T09:29:26.463Z,18.67
2019-01-02T09:32:14.721Z,15.33
2019-01-02T09:35:24.463Z,17.00
2019-01-02T09:38:28.321Z,18.23
2019-01-02T09:41:19.017Z,17.80
2019-01-02T09:44:30.896Z,11.20
2019-01-02T09:47:41.935Z,12.70
2019-01-02T09:50:37.187Z,19.17
2019-01-02T09:53:31.463Z,15.93
2019-01-02T09:56:26.372Z,15.73
2019-01-02T09:59:20.327Z,18.27
2019-01-02T10:02:37.001Z,17.37
2019-01-02T10:05:41.835Z,16.13
2019-01-02T10:08:40.570Z,14.20
2019-01-02T10:11:32.261Z,14.80
2019-01-02T10:14:40.226Z,13.90
2019-01-02T10:17:31.799Z,18.17
2019-01-02T10:20:36.705Z,12.57
2019-01-02T10:23:52.857Z,8.20
2019-01-02T10:27:00.900Z,15.07
2019-01-02T10:30:26.082Z,16.47
2019-01-02T10:33:28.456Z,11.90
2019-01-02T10:36:29.019Z,11.17
2019-01-02T10:39:34.029Z,16.60
2019-01-02T10:43:13.704Z,11.80
2019-01-02T10:46:34.487Z,10.93
2019-01-02T10:49:41.661Z,17.40
2019-01-02T10:52:57.877Z,13.63
2019-01-02T10:56:19.019Z,8.57
2019-01-02T10:59:23.942Z,15.33
2019-01-02T11:02:38.508Z,14.20
2019-01-02T11:05:37.216Z,10.83
2019-01-02T11:08:20.062Z,13.97
2019-01-02T11:11:09.063Z,9.77
2019-01-02T11:14:19.755Z,12.03
2019-01-02T11:17:23.023Z,15.43
2019-01-02T11:20:23.941Z,11.07
2019-01-02T11:23:35.843Z,12.37
2019-01-02T11:26:39.564Z,13.00
2019-01-02T11:29:23.044Z,10.57
2019-01-02T11:32:37.724Z,11.37
2019-01-02T11:35:55.523Z,11.00
2019-01-02T11:38:46.923Z,12.13
2019-01-02T11:41:52.581Z,12.73
2019-01-02T11:44:52.851Z,15.93
2019-01-02T11:47:20.088Z,10.10
2019-01-02T11:49:47.326Z,10.07
2019-01-02T11:52:14.567Z,9.87
2019-01-02T11:54:41.851Z,12.90
2019-01-02T11:57:09.063Z,14.37
2019-01-02T11:59:36.314Z,11.73
2019-01-02T12:02:04.607Z,17.10
2019-01-02T12:04:31.943Z,10.83
2019-01-02T12:06:59.161Z,9.97
2019-01-02T12:09:26.411Z,12.77
2019-01-02T12:11:53.637Z,12.57
2019-01-02T12:14:20.900Z,11.80
2019-01-02T12:16:48.146Z,12.50
2019-01-02T12:19:15.389Z,8.60
2019-01-02T12:21:42.639Z,9.03
2019-01-02T12:24:09.895Z,12.30
2019-01-02T12:26:37.187Z,11.60
2019-01-02T12:29:04.423Z,12.90
2019-01-02T12:31:31.657Z,15.33
2019-01-02T12:33:58.946Z,9.70
2019-01-02T12:36:26.162Z,15.30
2019-01-02T12:38:53.447Z,11.37
2019-01-02T12:41:20.727Z,10.23
2019-01-02T12:43:47.971Z,10.97
2019-01-02T12:46:15.281Z,10.80
2019-01-02T12:48:42.501Z,11.63
2019-01-02T12:51:09.723Z,13.80
2019-01-02T12:53:36.974Z,11.73
2019-01-02T12:56:04.194Z,8.70
2019-01-02T12:58:31.451Z,8.00
2019-01-02T13:01:06.194Z,10.73
2019-01-02T13:04:30.143Z,7.27
2019-01-02T13:07:29.483Z,11.50
2019-01-02T13:10:17.138Z,8.27
2019-01-02T13:13:21.830Z,7.33
2019-01-02T13:16:45.645Z,10.77
2019-01-02T13:19:39.670Z,13.63
2019-01-02T13:22:40.549Z,11.10
2019-01-02T13:25:41.960Z,11.33
2019-01-02T13:28:26.541Z,12.83
2019-01-02T13:31:37.580Z,14.83
2019-01-02T13:34:55.417Z,11.30
2019-01-02T13:37:30.372Z,13.13
2019-01-02T13:40:42.462Z,11.47
2019-01-02T13:43:34.435Z,14.53
2019-01-02T13:46:31.443Z,12.67
2019-01-02T13:49:39.180Z,9.17
2019-01-02T13:52:06.417Z,10.67
2019-01-02T13:54:33.695Z,11.60
2019-01-02T13:57:02.032Z,11.43
2019-01-02T13:59:29.269Z,8.03
2019-01-02T14:01:56.476Z,12.03
2019-01-02T14:04:23.753Z,10.73
2019-01-02T14:06:50.976Z,13.27
2019-01-02T14:09:18.209Z,10.10
2019-01-02T14:11:45.468Z,13.70
2019-01-02T14:14:12.716Z,10.73
2019-01-02T14:16:39.941Z,8.57
2019-01-02T14:19:07.165Z,12.30
2019-01-02T14:21:34.403Z,12.97
2019-01-02T14:24:01.632Z,5.47
2019-01-02T14:26:28.931Z,12.93
2019-01-02T14:28:56.148Z,7.13
2019-01-02T14:31:23.382Z,10.93
2019-01-02T14:33:50.668Z,9.67
2019-01-02T14:36:17.896Z,8.93
2019-01-02T14:38:45.191Z,10.20
2019-01-02T14:41:12.408Z,11.20
2019-01-02T14:43:39.647Z,10.47
2019-01-02T14:46:06.963Z,7.90
2019-01-02T14:48:34.257Z,9.83
2019-01-02T14:51:01.517Z,14.17
2019-01-02T14:53:28.749Z,7.40
2019-01-02T14:55:56.044Z,5.43
2019-01-02T14:58:23.276Z,6.80
2019-01-02T15:00:50.508Z,11.20
2019-01-02T15:03:17.772Z,9.20
2019-01-02T15:05:45.063Z,14.73
2019-01-02T15:08:12.302Z,11.13
2019-01-02T15:10:39.534Z,11.30
2019-01-02T15:13:06.764Z,14.00
2019-01-02T15:15:34.030Z,7.03
2019-01-02T15:18:01.335Z,11.60
2019-01-02T15:20:28.544Z,10.87
2019-01-02T15:22:55.807Z,14.27
2019-01-02T15:25:23.082Z,12.03
2019-01-02T15:27:50.311Z,7.03
2019-01-02T15:30:20.715Z,7.17
2019-01-02T15:32:47.919Z,12.00
2019-01-02T15:35:15.194Z,9.90
2019-01-02T15:37:45.624Z,9.13
2019-01-02T15:40:12.866Z,10.27
2019-01-02T15:42:40.151Z,7.83
2019-01-02T15:45:08.697Z,8.30
2019-01-02T15:47:35.957Z,14.10
2019-01-02T15:50:03.750Z,32.87
2019-01-02T15:52:31.075Z,56.33
2019-01-02T15:54:58.337Z,26.80
2019-01-02T15:57:25.658Z,16.80
2019-01-02T15:59:52.955Z,16.60
2019-01-02T16:02:20.193Z,15.70
2019-01-02T16:04:47.432Z,9.10
2019-01-02T16:07:14.719Z,5.63
2019-01-02T16:09:41.963Z,12.23
2019-01-02T16:12:09.317Z,7.43
2019-01-02T16:14:36.552Z,7.20
2019-01-02T16:17:03.942Z,8.07
2019-01-02T16:19:31.196Z,11.53
2019-01-02T16:21:58.421Z,7.37
2019-01-02T16:24:25.670Z,13.77
2019-01-02T16:26:52.941Z,11.97
2019-01-02T16:29:20.161Z,13.80
2019-01-02T16:31:47.376Z,11.50
2019-01-02T16:34:14.786Z,11.57
2019-01-02T16:36:42.024Z,11.47
2019-01-02T16:39:09.291Z,12.63
2019-01-02T16:41:36.560Z,11.20
2019-01-02T16:44:03.789Z,11.93
2019-01-02T16:46:31.092Z,11.20
2019-01-02T16:48:58.413Z,13.13
2019-01-02T16:51:25.723Z,16.43
2019-01-02T16:53:53.007Z,21.70
2019-01-02T16:56:20.251Z,12.80
2019-01-02T16:58:47.467Z,14.40
2019-01-02T17:01:14.752Z,20.23
2019-01-02T17:03:42.019Z,10.53
2019-01-02T17:06:09.267Z,11.13
2019-01-02T17:08:36.552Z,18.03
2019-01-02T17:11:03.781Z,29.60
2019-01-02T17:13:31.052Z,15.20
2019-01-02T17:15:58.399Z,13.37
2019-01-02T17:18:25.612Z,13.07
2019-01-02T17:20:52.950Z,17.17
2019-01-02T17:23:20.732Z,10.80
2019-01-02T17:25:47.951Z,9.13
2019-01-02T17:28:15.180Z,16.90
2019-01-02T17:30:42.446Z,11.73
2019-01-02T17:33:09.813Z,12.90
2019-01-02T17:35:37.218Z,11.63
2019-01-02T17:38:04.797Z,12.87
2019-01-02T17:40:32.102Z,9.10
2019-01-02T17:43:00.668Z,10.93
2019-01-02T17:45:28.087Z,13.60
2019-01-02T17:47:55.607Z,14.03
2019-01-02T17:50:22.863Z,14.27
2019-01-02T17:52:50.222Z,7.63
2019-01-02T17:55:17.460Z,9.70
2019-01-02T17:57:44.737Z,8.77
2019-01-02T18:00:12.529Z,13.93
2019-01-02T18:02:39.779Z,8.13
2019-01-02T18:05:07.029Z,7.70
2019-01-02T18:07:34.506Z,13.20
2019-01-02T18:10:01.734Z,12.83
2019-01-02T18:12:30.740Z,8.43
2019-01-02T18:14:58.007Z,16.57
2019-01-02T18:17:25.371Z,16.93
2019-01-02T18:19:52.643Z,11.90
2019-01-02T18:22:19.856Z,9.23
2019-01-02T18:24:47.120Z,10.27
2019-01-02T18:27:14.379Z,11.73
2019-01-02T18:29:41.617Z,11.57
2019-01-02T18:32:08.860Z,17.27
2019-01-02T18:34:36.073Z,10.00
2019-01-02T18:37:03.316Z,9.10
2019-01-02T18:39:30.554Z,7.33
2019-01-02T18:41:57.783Z,8.67
2019-01-02T18:44:24.998Z,29.43
2019-01-02T18:46:52.248Z,21.63
2019-01-02T18:49:19.541Z,22.03
2019-01-02T18:51:46.796Z,17.33
2019-01-02T18:54:15.001Z,31.00
2019-01-02T18:56:42.248Z,23.80
2019-01-02T18:59:09.506Z,18.53
2019-01-02T19:01:36.744Z,12.50
2019-01-02T19:04:03.980Z,16.10
2019-01-02T19:06:31.235Z,20.77
2019-01-02T19:08:58.505Z,18.93
2019-01-02T19:11:25.751Z,14.33
2019-01-02T19:13:53.240Z,10.37
2019-01-02T19:16:21.635Z,8.87
2019-01-02T19:18:48.980Z,12.57
2019-01-02T19:21:16.237Z,11.57
2019-01-02T19:23:43.444Z,11.27
2019-01-02T19:26:10.684Z,12.40
2019-01-02T19:28:37.915Z,10.17
2019-01-02T19:31:07.337Z,8.93
2019-01-02T19:33:34.586Z,6.73
2019-01-02T19:36:01.830Z,7.83
2019-01-02T19:38:29.030Z,10.23
2019-01-02T19:40:56.269Z,8.50
2019-01-02T19:43:23.534Z,11.10
2019-01-02T19:45:50.760Z,10.87
2019-01-02T19:48:18.007Z,9.07
2019-01-02T19:50:45.272Z,11.33
2019-01-02T19:53:12.512Z,16.73
2019-01-02T19:55:39.732Z,16.40
2019-01-02T19:58:07.038Z,13.57
2019-01-02T20:00:34.268Z,12.10
2019-01-02T20:03:01.503Z,8.60
2019-01-02T20:05:28.798Z,9.23
2019-01-02T20:07:56.005Z,14.10
2019-01-02T20:10:23.235Z,7.47
2019-01-02T20:12:50.478Z,11.70
2019-01-02T20:15:17.717Z,8.93
2019-01-02T20:17:45.423Z,5.43
2019-01-02T20:20:13.268Z,10.13
2019-01-02T20:22:41.044Z,11.20
2019-01-02T20:25:08.346Z,14.00
2019-01-02T20:27:35.894Z,12.63
2019-01-02T20:30:04.327Z,12.53
2019-01-02T20:32:31.942Z,12.13
2019-01-02T20:34:59.221Z,9.07
2019-01-02T20:37:26.452Z,9.40
2019-01-02T20:39:54.036Z,9.47
2019-01-02T20:42:21.309Z,13.77
2019-01-02T20:44:48.535Z,10.03
2019-01-02T20:47:15.881Z,9.87
2019-01-02T20:49:43.185Z,11.80
2019-01-02T20:52:10.477Z,8.73
2019-01-02T20:54:37.665Z,9.43
2019-01-02T20:57:04.980Z,7.30
2019-01-02T20:59:32.198Z,6.17
2019-01-02T21:01:59.433Z,6.23
2019-01-02T21:04:26.691Z,7.40
2019-01-02T21:06:53.917Z,8.47
2019-01-02T21:09:21.169Z,5.33
2019-01-02T21:11:48.452Z,4.23
2019-01-02T21:14:15.646Z,3.40
2019-01-02T21:16:42.880Z,4.00
2019-01-02T21:19:12.736Z,6.70
2019-01-02T21:21:39.922Z,2.73
2019-01-02T21:24:07.202Z,7.10
2019-01-02T21:26:34.397Z,5.50
2019-01-02T21:29:01.635Z,8.83
2019-01-02T21:31:28.923Z,7.67
2019-01-02T21:33:56.173Z,6.77
2019-01-02T21:36:23.395Z,8.97
2019-01-02T21:38:50.645Z,8.93
2019-01-02T21:41:17.904Z,7.73
2019-01-02T21:43:45.117Z,8.90
2019-01-02T21:46:12.409Z,8.53
2019-01-02T21:48:41.367Z,6.57
2019-01-02T21:51:08.755Z,3.50
2019-01-02T21:53:36.089Z,3.83
2019-01-02T21:56:03.320Z,7.70
2019-01-02T21:58:30.560Z,6.37
2019-01-02T22:00:57.861Z,9.53
2019-01-02T22:03:25.078Z,3.30
2019-01-02T22:05:53.217Z,5.20
2019-01-02T22:08:20.447Z,4.57
2019-01-02T22:10:47.660Z,2.97
2019-01-02T22:13:14.950Z,4.60
2019-01-02T22:15:42.161Z,6.43
2019-01-02T22:18:09.415Z,5.63
2019-01-02T22:20:36.687Z,4.40
2019-01-02T22:23:03.915Z,5.47
2019-01-02T22:25:31.155Z,5.73
2019-01-02T22:27:58.356Z,5.20
2019-01-02T22:30:25.561Z,4.97
2019-01-02T22:32:52.873Z,6.13
2019-01-02T22:35:20.114Z,5.57
2019-01-02T22:37:47.338Z,4.07
2019-01-02T22:40:14.604Z,4.17
2019-01-02T22:42:41.845Z,4.80
2019-01-02T22:45:09.095Z,5.50
2019-01-02T22:47:36.384Z,4.73
2019-01-02T22:50:05.519Z,5.30
2019-01-02T22:52:32.760Z,7.07
2019-01-02T22:55:00.162Z,7.17
2019-01-02T22:57:27.366Z,5.83
2019-01-02T22:59:54.625Z,4.63
2019-01-02T23:02:44.886Z,4.33
2019-01-02T23:05:26.236Z,7.10
2019-01-02T23:08:23.262Z,3.00
2019-01-02T23:11:12.689Z,2.33
2019-01-02T23:13:58.320Z,5.10
2019-01-02T23:16:46.195Z,3.77
2019-01-02T23:19:31.371Z,9.00
2019-01-02T23:22:17.086Z,6.10
2019-01-02T23:25:06.685Z,5.73
2019-01-02T23:27:51.008Z,7.53
2019-01-02T23:30:56.176Z,5.93
2019-01-02T23:33:41.815Z,7.57
2019-01-02T23:36:24.812Z,5.23
2019-01-02T23:39:11.634Z,5.87
2019-01-02T23:41:59.977Z,4.40
2019-01-02T23:44:58.920Z,6.13
2019-01-02T23:47:54.855Z,3.60
2019-01-02T23:50:53.720Z,5.70
2019-01-02T23:53:33.057Z,6.17
2019-01-02T23:56:18.447Z,6.33
2019-01-02T23:59:03.874Z,5.90
